sensor_id;sensor_type;location;lat;lon;timestamp;pressure;altitude;pressure_sealevel;temperature;humidity
55687;BME280;41911;52.362;4.978;2023-03-18T00:01:31;100752.48;;;12.21;43.73
55687;BME280;41911;52.362;4.978;2023-03-18T00:02:02;100750.97;;;12.29;43.62
55687;BME280;41911;52.362;4.978;2023-03-18T00:02:33;100748.74;;;12.39;43.62
55687;BME280;41911;52.362;4.978;2023-03-18T00:03:05;100748.93;;;12.35;43.56
55687;BME280;41911;52.362;4.978;2023-03-18T00:03:36;100748.34;;;12.71;43.47
55687;BME280;41911;52.362;4.978;2023-03-18T00:04:07;100746.66;;;12.79;43.31
55687;BME280;41911;52.362;4.978;2023-03-18T00:04:39;100746.44;;;12.15;43.84
55687;BME280;41911;52.362;4.978;2023-03-18T00:05:11;100744.44;;;12.27;44.09
55687;BME280;41911;52.362;4.978;2023-03-18T00:05:42;100746.09;;;11.98;44.05
55687;BME280;41911;52.362;4.978;2023-03-18T00:06:15;100745.71;;;12.42;44.02
55687;BME280;41911;52.362;4.978;2023-03-18T00:06:46;100744.71;;;12.42;44.06
55687;BME280;41911;52.362;4.978;2023-03-18T00:07:17;100748.19;;;12.32;43.98
55687;BME280;41911;52.362;4.978;2023-03-18T00:07:48;100752.23;;;12.42;43.96
55687;BME280;41911;52.362;4.978;2023-03-18T00:08:19;100753.83;;;12.35;44.07
55687;BME280;41911;52.362;4.978;2023-03-18T00:08:50;100754.56;;;12.56;44.09
55687;BME280;41911;52.362;4.978;2023-03-18T00:09:21;100753.33;;;11.97;44.10
55687;BME280;41911;52.362;4.978;2023-03-18T00:09:52;100755.62;;;12.14;43.93
55687;BME280;41911;52.362;4.978;2023-03-18T00:10:24;100754.52;;;12.33;43.96
55687;BME280;41911;52.362;4.978;2023-03-18T00:10:54;100754.93;;;11.74;43.99
55687;BME280;41911;52.362;4.978;2023-03-18T00:11:25;100757.90;;;11.96;44.10
55687;BME280;41911;52.362;4.978;2023-03-18T00:11:56;100755.92;;;12.19;44.18
55687;BME280;41911;52.362;4.978;2023-03-18T00:12:27;100755.71;;;12.28;44.17
55687;BME280;41911;52.362;4.978;2023-03-18T00:12:58;100755.39;;;12.00;44.13
55687;BME280;41911;52.362;4.978;2023-03-18T00:13:30;100756.71;;;11.95;44.70
55687;BME280;41911;52.362;4.978;2023-03-18T00:14:01;100756.12;;;11.50;44.86
55687;BME280;41911;52.362;4.978;2023-03-18T00:14:34;100755.96;;;11.98;44.74
55687;BME280;41911;52.362;4.978;2023-03-18T00:15:06;100756.14;;;12.17;44.50
55687;BME280;41911;52.362;4.978;2023-03-18T00:15:38;100757.34;;;12.23;44.72
55687;BME280;41911;52.362;4.978;2023-03-18T00:16:11;100755.91;;;11.76;45.01
55687;BME280;41911;52.362;4.978;2023-03-18T00:16:42;100757.53;;;11.79;44.99
55687;BME280;41911;52.362;4.978;2023-03-18T00:17:13;100756.65;;;12.05;45.05
55687;BME280;41911;52.362;4.978;2023-03-18T00:17:44;100754.71;;;11.82;44.95
55687;BME280;41911;52.362;4.978;2023-03-18T00:18:17;100755.25;;;12.12;44.90
55687;BME280;41911;52.362;4.978;2023-03-18T00:18:48;100754.31;;;11.92;44.82
55687;BME280;41911;52.362;4.978;2023-03-18T00:19:19;100754.57;;;12.01;44.71
55687;BME280;41911;52.362;4.978;2023-03-18T00:19:50;100755.56;;;12.25;44.65
55687;BME280;41911;52.362;4.978;2023-03-18T00:20:21;100755.37;;;12.37;44.54
55687;BME280;41911;52.362;4.978;2023-03-18T00:20:52;100756.49;;;12.15;44.53
55687;BME280;41911;52.362;4.978;2023-03-18T00:21:23;100756.26;;;12.41;44.57
55687;BME280;41911;52.362;4.978;2023-03-18T00:21:54;100756.26;;;12.07;44.53
55687;BME280;41911;52.362;4.978;2023-03-18T00:22:25;100758.75;;;12.08;44.50
55687;BME280;41911;52.362;4.978;2023-03-18T00:22:56;100760.17;;;12.28;44.29
55687;BME280;41911;52.362;4.978;2023-03-18T00:23:27;100759.71;;;12.32;44.12
55687;BME280;41911;52.362;4.978;2023-03-18T00:23:58;100758.57;;;12.30;44.11
55687;BME280;41911;52.362;4.978;2023-03-18T00:24:29;100759.73;;;12.17;44.35
55687;BME280;41911;52.362;4.978;2023-03-18T00:25:01;100760.43;;;12.11;44.46
55687;BME280;41911;52.362;4.978;2023-03-18T00:25:32;100761.82;;;11.87;44.85
55687;BME280;41911;52.362;4.978;2023-03-18T00:26:03;100762.57;;;12.17;44.77
55687;BME280;41911;52.362;4.978;2023-03-18T00:26:34;100759.87;;;12.15;44.39
55687;BME280;41911;52.362;4.978;2023-03-18T00:27:06;100760.48;;;12.11;44.53
55687;BME280;41911;52.362;4.978;2023-03-18T00:27:37;100761.14;;;12.15;44.35
55687;BME280;41911;52.362;4.978;2023-03-18T00:28:08;100760.48;;;11.96;44.74
55687;BME280;41911;52.362;4.978;2023-03-18T00:28:39;100759.54;;;11.75;45.04
55687;BME280;41911;52.362;4.978;2023-03-18T00:29:10;100761.77;;;12.05;45.04
55687;BME280;41911;52.362;4.978;2023-03-18T00:29:41;100761.31;;;11.82;45.45
55687;BME280;41911;52.362;4.978;2023-03-18T00:30:13;100759.43;;;11.55;45.48
55687;BME280;41911;52.362;4.978;2023-03-18T00:30:44;100760.20;;;11.70;45.65
55687;BME280;41911;52.362;4.978;2023-03-18T00:31:15;100759.72;;;12.00;45.33
55687;BME280;41911;52.362;4.978;2023-03-18T00:31:46;100759.14;;;11.88;45.53
55687;BME280;41911;52.362;4.978;2023-03-18T00:32:17;100760.09;;;11.95;45.45
55687;BME280;41911;52.362;4.978;2023-03-18T00:32:48;100759.63;;;11.90;45.54
55687;BME280;41911;52.362;4.978;2023-03-18T00:33:20;100761.64;;;11.95;45.48
55687;BME280;41911;52.362;4.978;2023-03-18T00:33:52;100761.85;;;11.96;45.63
55687;BME280;41911;52.362;4.978;2023-03-18T00:34:23;100759.35;;;11.99;45.83
55687;BME280;41911;52.362;4.978;2023-03-18T00:34:55;100759.27;;;11.67;46.00
55687;BME280;41911;52.362;4.978;2023-03-18T00:35:27;100759.96;;;11.65;46.17
55687;BME280;41911;52.362;4.978;2023-03-18T00:35:58;100759.67;;;11.77;46.35
55687;BME280;41911;52.362;4.978;2023-03-18T00:36:30;100758.80;;;11.62;46.48
55687;BME280;41911;52.362;4.978;2023-03-18T00:37:01;100763.51;;;11.34;46.63
55687;BME280;41911;52.362;4.978;2023-03-18T00:37:32;100764.00;;;11.22;46.67
55687;BME280;41911;52.362;4.978;2023-03-18T00:38:03;100765.83;;;11.76;46.75
55687;BME280;41911;52.362;4.978;2023-03-18T00:38:36;100764.02;;;11.77;46.56
55687;BME280;41911;52.362;4.978;2023-03-18T00:39:07;100767.18;;;11.35;46.67
55687;BME280;41911;52.362;4.978;2023-03-18T00:39:38;100765.42;;;11.76;46.81
55687;BME280;41911;52.362;4.978;2023-03-18T00:40:11;100764.87;;;11.29;47.13
55687;BME280;41911;52.362;4.978;2023-03-18T00:40:42;100765.88;;;11.14;46.94
55687;BME280;41911;52.362;4.978;2023-03-18T00:41:13;100767.14;;;10.96;47.18
55687;BME280;41911;52.362;4.978;2023-03-18T00:41:44;100766.15;;;11.87;46.67
55687;BME280;41911;52.362;4.978;2023-03-18T00:42:15;100763.76;;;11.38;46.56
55687;BME280;41911;52.362;4.978;2023-03-18T00:42:46;100766.20;;;11.11;46.79
55687;BME280;41911;52.362;4.978;2023-03-18T00:43:17;100766.30;;;11.40;46.79
55687;BME280;41911;52.362;4.978;2023-03-18T00:43:49;100762.92;;;11.40;46.59
55687;BME280;41911;52.362;4.978;2023-03-18T00:44:20;100766.76;;;11.81;46.65
55687;BME280;41911;52.362;4.978;2023-03-18T00:44:51;100763.79;;;11.67;46.46
55687;BME280;41911;52.362;4.978;2023-03-18T00:45:23;100765.03;;;11.42;46.36
55687;BME280;41911;52.362;4.978;2023-03-18T00:45:55;100766.56;;;11.45;46.33
55687;BME280;41911;52.362;4.978;2023-03-18T00:46:28;100768.40;;;11.64;46.09
55687;BME280;41911;52.362;4.978;2023-03-18T00:46:59;100768.76;;;11.59;46.10
55687;BME280;41911;52.362;4.978;2023-03-18T00:47:30;100769.35;;;12.01;45.95
55687;BME280;41911;52.362;4.978;2023-03-18T00:48:01;100769.88;;;11.76;45.88
55687;BME280;41911;52.362;4.978;2023-03-18T00:48:32;100772.77;;;12.13;45.76
55687;BME280;41911;52.362;4.978;2023-03-18T00:49:05;100772.77;;;12.46;45.63
55687;BME280;41911;52.362;4.978;2023-03-18T00:49:36;100771.26;;;11.95;45.48
55687;BME280;41911;52.362;4.978;2023-03-18T00:50:09;100775.07;;;12.01;45.35
55687;BME280;41911;52.362;4.978;2023-03-18T00:50:41;100775.16;;;12.04;45.31
55687;BME280;41911;52.362;4.978;2023-03-18T00:51:13;100775.20;;;11.98;45.27
55687;BME280;41911;52.362;4.978;2023-03-18T00:51:45;100773.85;;;11.96;45.25
55687;BME280;41911;52.362;4.978;2023-03-18T00:52:16;100774.09;;;11.99;45.23
55687;BME280;41911;52.362;4.978;2023-03-18T00:52:47;100775.87;;;11.84;45.14
55687;BME280;41911;52.362;4.978;2023-03-18T00:53:18;100776.23;;;12.02;45.08
55687;BME280;41911;52.362;4.978;2023-03-18T00:53:51;100777.24;;;12.12;45.04
55687;BME280;41911;52.362;4.978;2023-03-18T00:54:22;100777.48;;;12.09;44.98
55687;BME280;41911;52.362;4.978;2023-03-18T00:54:53;100777.70;;;11.88;44.91
55687;BME280;41911;52.362;4.978;2023-03-18T00:55:25;100775.68;;;12.07;44.96
55687;BME280;41911;52.362;4.978;2023-03-18T00:55:56;100777.18;;;11.84;44.88
55687;BME280;41911;52.362;4.978;2023-03-18T00:56:28;100778.91;;;11.84;44.90
55687;BME280;41911;52.362;4.978;2023-03-18T00:57:00;100780.09;;;12.21;44.79
55687;BME280;41911;52.362;4.978;2023-03-18T00:57:31;100780.09;;;12.14;44.75
55687;BME280;41911;52.362;4.978;2023-03-18T00:58:02;100777.91;;;11.85;44.77
55687;BME280;41911;52.362;4.978;2023-03-18T00:58:33;100778.12;;;11.82;44.74
55687;BME280;41911;52.362;4.978;2023-03-18T00:59:05;100777.35;;;11.78;44.79
55687;BME280;41911;52.362;4.978;2023-03-18T00:59:36;100778.24;;;11.84;44.81
55687;BME280;41911;52.362;4.978;2023-03-18T01:00:09;100775.57;;;12.05;44.83
55687;BME280;41911;52.362;4.978;2023-03-18T01:00:40;100775.70;;;11.78;44.88
55687;BME280;41911;52.362;4.978;2023-03-18T01:01:11;100774.72;;;11.74;44.89
55687;BME280;41911;52.362;4.978;2023-03-18T01:01:42;100775.38;;;11.76;44.89
55687;BME280;41911;52.362;4.978;2023-03-18T01:02:13;100772.71;;;11.81;44.86
55687;BME280;41911;52.362;4.978;2023-03-18T01:02:44;100774.59;;;11.53;44.79
55687;BME280;41911;52.362;4.978;2023-03-18T01:03:16;100773.63;;;11.82;44.78
55687;BME280;41911;52.362;4.978;2023-03-18T01:03:47;100774.54;;;11.58;44.76
55687;BME280;41911;52.362;4.978;2023-03-18T01:04:18;100774.90;;;12.15;44.78
55687;BME280;41911;52.362;4.978;2023-03-18T01:04:49;100771.48;;;12.01;44.71
55687;BME280;41911;52.362;4.978;2023-03-18T01:05:20;100772.48;;;12.39;44.56
55687;BME280;41911;52.362;4.978;2023-03-18T01:05:52;100774.97;;;12.10;44.54
55687;BME280;41911;52.362;4.978;2023-03-18T01:06:26;100771.60;;;12.33;44.63
55687;BME280;41911;52.362;4.978;2023-03-18T01:06:58;100775.36;;;12.18;44.86
55687;BME280;41911;52.362;4.978;2023-03-18T01:07:29;100773.37;;;11.82;44.59
55687;BME280;41911;52.362;4.978;2023-03-18T01:08:00;100776.76;;;11.98;44.75
55687;BME280;41911;52.362;4.978;2023-03-18T01:08:31;100777.02;;;11.95;45.17
55687;BME280;41911;52.362;4.978;2023-03-18T01:09:04;100777.23;;;11.67;45.16
55687;BME280;41911;52.362;4.978;2023-03-18T01:09:35;100776.28;;;11.51;45.36
55687;BME280;41911;52.362;4.978;2023-03-18T01:10:09;100778.24;;;11.78;45.65
55687;BME280;41911;52.362;4.978;2023-03-18T01:10:40;100778.49;;;11.56;45.73
55687;BME280;41911;52.362;4.978;2023-03-18T01:11:11;100777.99;;;11.41;45.70
55687;BME280;41911;52.362;4.978;2023-03-18T01:11:42;100778.41;;;11.52;45.59
55687;BME280;41911;52.362;4.978;2023-03-18T01:12:14;100777.31;;;11.88;45.44
55687;BME280;41911;52.362;4.978;2023-03-18T01:12:45;100776.11;;;11.63;45.38
55687;BME280;41911;52.362;4.978;2023-03-18T01:13:16;100776.52;;;11.62;45.42
55687;BME280;41911;52.362;4.978;2023-03-18T01:13:48;100776.70;;;11.86;45.39
55687;BME280;41911;52.362;4.978;2023-03-18T01:14:19;100776.10;;;11.70;45.36
55687;BME280;41911;52.362;4.978;2023-03-18T01:14:50;100777.20;;;12.05;45.28
55687;BME280;41911;52.362;4.978;2023-03-18T01:15:21;100778.16;;;12.10;45.24
55687;BME280;41911;52.362;4.978;2023-03-18T01:15:55;100776.33;;;11.82;45.16
55687;BME280;41911;52.362;4.978;2023-03-18T01:16:26;100774.92;;;12.04;45.16
55687;BME280;41911;52.362;4.978;2023-03-18T01:16:58;100776.64;;;12.05;45.12
55687;BME280;41911;52.362;4.978;2023-03-18T01:17:29;100774.85;;;11.78;45.13
55687;BME280;41911;52.362;4.978;2023-03-18T01:18:01;100774.41;;;11.87;44.94
55687;BME280;41911;52.362;4.978;2023-03-18T01:18:34;100776.10;;;11.83;45.02
55687;BME280;41911;52.362;4.978;2023-03-18T01:19:05;100774.72;;;11.49;44.96
55687;BME280;41911;52.362;4.978;2023-03-18T01:19:37;100777.64;;;11.87;44.93
55687;BME280;41911;52.362;4.978;2023-03-18T01:20:09;100776.27;;;12.18;44.87
55687;BME280;41911;52.362;4.978;2023-03-18T01:20:40;100777.62;;;12.20;44.80
55687;BME280;41911;52.362;4.978;2023-03-18T01:21:13;100777.61;;;12.15;44.84
55687;BME280;41911;52.362;4.978;2023-03-18T01:21:43;100777.26;;;11.57;44.87
55687;BME280;41911;52.362;4.978;2023-03-18T01:22:15;100777.60;;;11.91;44.81
55687;BME280;41911;52.362;4.978;2023-03-18T01:22:46;100778.46;;;12.22;44.79
55687;BME280;41911;52.362;4.978;2023-03-18T01:23:18;100777.37;;;11.86;44.90
55687;BME280;41911;52.362;4.978;2023-03-18T01:23:50;100777.01;;;11.74;44.94
55687;BME280;41911;52.362;4.978;2023-03-18T01:24:22;100774.78;;;11.84;44.96
55687;BME280;41911;52.362;4.978;2023-03-18T01:24:53;100774.17;;;12.15;44.90
55687;BME280;41911;52.362;4.978;2023-03-18T01:25:24;100772.45;;;11.85;44.93
55687;BME280;41911;52.362;4.978;2023-03-18T01:25:55;100773.49;;;11.57;44.91
55687;BME280;41911;52.362;4.978;2023-03-18T01:26:26;100772.33;;;11.90;44.88
55687;BME280;41911;52.362;4.978;2023-03-18T01:26:57;100772.00;;;11.80;44.87
55687;BME280;41911;52.362;4.978;2023-03-18T01:27:28;100771.61;;;12.17;44.85
55687;BME280;41911;52.362;4.978;2023-03-18T01:27:59;100769.39;;;11.88;44.92
55687;BME280;41911;52.362;4.978;2023-03-18T01:28:30;100769.82;;;11.93;44.81
55687;BME280;41911;52.362;4.978;2023-03-18T01:29:02;100769.19;;;11.72;44.82
55687;BME280;41911;52.362;4.978;2023-03-18T01:29:34;100768.27;;;12.01;44.69
55687;BME280;41911;52.362;4.978;2023-03-18T01:30:07;100769.25;;;12.02;44.70
55687;BME280;41911;52.362;4.978;2023-03-18T01:30:38;100771.13;;;12.00;44.74
55687;BME280;41911;52.362;4.978;2023-03-18T01:31:09;100771.85;;;11.91;44.81
55687;BME280;41911;52.362;4.978;2023-03-18T01:31:40;100770.73;;;12.17;44.83
55687;BME280;41911;52.362;4.978;2023-03-18T01:32:11;100769.61;;;11.87;44.91
55687;BME280;41911;52.362;4.978;2023-03-18T01:32:42;100769.60;;;11.91;44.82
55687;BME280;41911;52.362;4.978;2023-03-18T01:33:13;100770.61;;;12.21;44.89
55687;BME280;41911;52.362;4.978;2023-03-18T01:33:45;100768.36;;;12.23;44.88
55687;BME280;41911;52.362;4.978;2023-03-18T01:34:16;100766.47;;;11.91;44.81
55687;BME280;41911;52.362;4.978;2023-03-18T01:34:47;100765.32;;;11.64;44.76
55687;BME280;41911;52.362;4.978;2023-03-18T01:35:19;100761.60;;;11.97;44.72
55687;BME280;41911;52.362;4.978;2023-03-18T01:35:55;100759.46;;;11.95;44.71
55687;BME280;41911;52.362;4.978;2023-03-18T01:36:26;100761.46;;;11.66;44.71
55687;BME280;41911;52.362;4.978;2023-03-18T01:36:57;100760.13;;;12.26;44.68
55687;BME280;41911;52.362;4.978;2023-03-18T01:37:28;100760.67;;;12.30;44.66
55687;BME280;41911;52.362;4.978;2023-03-18T01:37:59;100761.95;;;11.98;44.66
55687;BME280;41911;52.362;4.978;2023-03-18T01:38:31;100760.07;;;11.85;44.72
55687;BME280;41911;52.362;4.978;2023-03-18T01:39:02;100759.01;;;11.93;44.76
55687;BME280;41911;52.362;4.978;2023-03-18T01:39:33;100760.38;;;12.29;44.75
55687;BME280;41911;52.362;4.978;2023-03-18T01:40:06;100758.70;;;11.83;44.85
55687;BME280;41911;52.362;4.978;2023-03-18T01:40:38;100759.37;;;11.90;44.84
55687;BME280;41911;52.362;4.978;2023-03-18T01:41:10;100758.80;;;11.83;44.84
55687;BME280;41911;52.362;4.978;2023-03-18T01:41:42;100760.43;;;11.83;44.89
55687;BME280;41911;52.362;4.978;2023-03-18T01:42:13;100760.01;;;11.41;45.05
55687;BME280;41911;52.362;4.978;2023-03-18T01:42:51;100759.37;;;11.76;45.00
55687;BME280;41911;52.362;4.978;2023-03-18T01:43:26;100760.46;;;11.72;45.06
55687;BME280;41911;52.362;4.978;2023-03-18T01:43:57;100759.14;;;11.73;45.01
55687;BME280;41911;52.362;4.978;2023-03-18T01:44:29;100762.00;;;11.85;44.90
55687;BME280;41911;52.362;4.978;2023-03-18T01:45:19;100762.86;;;12.10;44.84
55687;BME280;41911;52.362;4.978;2023-03-18T01:45:53;100762.89;;;11.81;44.91
55687;BME280;41911;52.362;4.978;2023-03-18T01:46:35;100761.78;;;12.05;44.97
55687;BME280;41911;52.362;4.978;2023-03-18T01:47:07;100761.73;;;11.66;44.95
55687;BME280;41911;52.362;4.978;2023-03-18T01:47:38;100761.44;;;11.65;44.96
55687;BME280;41911;52.362;4.978;2023-03-18T01:48:14;100761.04;;;11.62;45.01
55687;BME280;41911;52.362;4.978;2023-03-18T01:48:46;100762.20;;;11.96;45.08
55687;BME280;41911;52.362;4.978;2023-03-18T01:49:21;100760.44;;;11.62;45.00
55687;BME280;41911;52.362;4.978;2023-03-18T01:49:54;100760.66;;;11.72;44.92
55687;BME280;41911;52.362;4.978;2023-03-18T01:50:32;100760.46;;;11.66;44.95
55687;BME280;41911;52.362;4.978;2023-03-18T01:51:06;100759.77;;;11.88;45.09
55687;BME280;41911;52.362;4.978;2023-03-18T01:51:40;100760.32;;;11.94;45.12
55687;BME280;41911;52.362;4.978;2023-03-18T01:52:14;100758.03;;;11.58;45.11
55687;BME280;41911;52.362;4.978;2023-03-18T01:52:48;100757.24;;;11.61;45.12
55687;BME280;41911;52.362;4.978;2023-03-18T01:53:23;100757.07;;;11.67;45.43
55687;BME280;41911;52.362;4.978;2023-03-18T01:53:59;100757.35;;;11.44;45.45
55687;BME280;41911;52.362;4.978;2023-03-18T01:54:40;100757.93;;;11.42;45.81
55687;BME280;41911;52.362;4.978;2023-03-18T01:55:18;100760.48;;;11.51;45.80
55687;BME280;41911;52.362;4.978;2023-03-18T01:55:49;100759.33;;;11.54;45.74
55687;BME280;41911;52.362;4.978;2023-03-18T01:56:21;100758.02;;;11.18;45.83
55687;BME280;41911;52.362;4.978;2023-03-18T01:56:52;100755.70;;;11.33;46.04
55687;BME280;41911;52.362;4.978;2023-03-18T01:57:24;100756.38;;;11.31;46.18
55687;BME280;41911;52.362;4.978;2023-03-18T01:57:57;100761.46;;;11.17;46.34
55687;BME280;41911;52.362;4.978;2023-03-18T01:58:33;100762.08;;;10.70;47.11
55687;BME280;41911;52.362;4.978;2023-03-18T01:59:05;100760.65;;;11.26;46.68
55687;BME280;41911;52.362;4.978;2023-03-18T01:59:40;100760.02;;;11.32;46.58
55687;BME280;41911;52.362;4.978;2023-03-18T02:00:12;100762.37;;;11.33;46.65
55687;BME280;41911;52.362;4.978;2023-03-18T02:00:48;100761.06;;;11.13;46.47
55687;BME280;41911;52.362;4.978;2023-03-18T02:01:24;100759.66;;;11.22;46.34
55687;BME280;41911;52.362;4.978;2023-03-18T02:02:01;100761.42;;;11.24;46.25
55687;BME280;41911;52.362;4.978;2023-03-18T02:02:32;100763.08;;;11.28;46.18
55687;BME280;41911;52.362;4.978;2023-03-18T02:03:03;100760.43;;;11.23;46.28
55687;BME280;41911;52.362;4.978;2023-03-18T02:03:35;100761.23;;;11.35;46.10
55687;BME280;41911;52.362;4.978;2023-03-18T02:04:08;100760.32;;;11.29;46.16
55687;BME280;41911;52.362;4.978;2023-03-18T02:04:41;100763.03;;;11.22;46.27
55687;BME280;41911;52.362;4.978;2023-03-18T02:05:15;100762.42;;;11.24;46.24
55687;BME280;41911;52.362;4.978;2023-03-18T02:05:47;100765.75;;;11.16;46.37
55687;BME280;41911;52.362;4.978;2023-03-18T02:06:19;100766.84;;;11.27;46.42
55687;BME280;41911;52.362;4.978;2023-03-18T02:06:50;100766.91;;;11.09;46.49
55687;BME280;41911;52.362;4.978;2023-03-18T02:07:25;100769.53;;;11.16;46.46
55687;BME280;41911;52.362;4.978;2023-03-18T02:07:56;100764.67;;;11.32;46.23
55687;BME280;41911;52.362;4.978;2023-03-18T02:08:27;100766.83;;;11.40;46.47
55687;BME280;41911;52.362;4.978;2023-03-18T02:08:59;100768.85;;;11.34;46.60
55687;BME280;41911;52.362;4.978;2023-03-18T02:09:30;100765.43;;;10.99;46.73
55687;BME280;41911;52.362;4.978;2023-03-18T02:10:04;100763.67;;;11.19;46.81
55687;BME280;41911;52.362;4.978;2023-03-18T02:10:36;100765.00;;;10.97;46.75
55687;BME280;41911;52.362;4.978;2023-03-18T02:11:08;100763.87;;;11.36;46.64
55687;BME280;41911;52.362;4.978;2023-03-18T02:11:42;100764.54;;;11.11;46.70
55687;BME280;41911;52.362;4.978;2023-03-18T02:12:22;100762.95;;;11.19;46.89
55687;BME280;41911;52.362;4.978;2023-03-18T02:12:57;100764.36;;;11.08;46.66
55687;BME280;41911;52.362;4.978;2023-03-18T02:13:29;100762.49;;;11.21;46.68
55687;BME280;41911;52.362;4.978;2023-03-18T02:14:02;100763.87;;;11.42;46.65
55687;BME280;41911;52.362;4.978;2023-03-18T02:14:33;100764.95;;;11.10;46.74
55687;BME280;41911;52.362;4.978;2023-03-18T02:15:08;100765.61;;;11.11;46.68
55687;BME280;41911;52.362;4.978;2023-03-18T02:15:45;100763.97;;;11.03;46.72
55687;BME280;41911;52.362;4.978;2023-03-18T02:16:21;100766.93;;;11.00;46.78
55687;BME280;41911;52.362;4.978;2023-03-18T02:16:57;100769.77;;;10.69;46.80
55687;BME280;41911;52.362;4.978;2023-03-18T02:17:32;100770.10;;;11.12;46.78
55687;BME280;41911;52.362;4.978;2023-03-18T02:18:07;100769.94;;;11.01;46.83
55687;BME280;41911;52.362;4.978;2023-03-18T02:18:55;100773.43;;;11.04;46.78
55687;BME280;41911;52.362;4.978;2023-03-18T02:19:40;100776.67;;;11.20;47.03
55687;BME280;41911;52.362;4.978;2023-03-18T02:20:19;100776.35;;;11.10;47.06
55687;BME280;41911;52.362;4.978;2023-03-18T02:21:11;100779.94;;;10.70;48.18
55687;BME280;41911;52.362;4.978;2023-03-18T02:21:49;100779.68;;;10.72;47.96
55687;BME280;41911;52.362;4.978;2023-03-18T02:22:27;100780.00;;;10.98;47.49
55687;BME280;41911;52.362;4.978;2023-03-18T02:23:05;100781.85;;;11.03;47.30
55687;BME280;41911;52.362;4.978;2023-03-18T02:23:45;100778.59;;;11.01;47.67
55687;BME280;41911;52.362;4.978;2023-03-18T02:25:24;100780.53;;;10.44;48.23
55687;BME280;41911;52.362;4.978;2023-03-18T02:26:02;100780.50;;;10.79;48.18
55687;BME280;41911;52.362;4.978;2023-03-18T02:26:45;100780.78;;;10.81;48.13
55687;BME280;41911;52.362;4.978;2023-03-18T02:27:18;100779.77;;;10.94;47.95
55687;BME280;41911;52.362;4.978;2023-03-18T02:27:53;100780.26;;;10.79;48.20
55687;BME280;41911;52.362;4.978;2023-03-18T02:28:27;100780.11;;;10.77;48.23
55687;BME280;41911;52.362;4.978;2023-03-18T02:29:02;100780.79;;;10.65;47.97
55687;BME280;41911;52.362;4.978;2023-03-18T02:29:35;100779.84;;;10.99;47.92
55687;BME280;41911;52.362;4.978;2023-03-18T02:30:10;100780.06;;;10.69;48.72
55687;BME280;41911;52.362;4.978;2023-03-18T02:30:47;100777.58;;;10.40;48.71
55687;BME280;41911;52.362;4.978;2023-03-18T02:31:20;100779.72;;;10.55;49.01
55687;BME280;41911;52.362;4.978;2023-03-18T02:31:51;100779.75;;;10.25;49.09
55687;BME280;41911;52.362;4.978;2023-03-18T02:32:26;100778.33;;;10.53;48.72
55687;BME280;41911;52.362;4.978;2023-03-18T02:32:58;100779.04;;;10.56;48.62
55687;BME280;41911;52.362;4.978;2023-03-18T02:33:34;100777.78;;;10.36;48.91
55687;BME280;41911;52.362;4.978;2023-03-18T02:34:06;100779.81;;;10.27;49.04
55687;BME280;41911;52.362;4.978;2023-03-18T02:34:39;100780.67;;;10.68;48.90
55687;BME280;41911;52.362;4.978;2023-03-18T02:35:12;100783.27;;;10.27;49.11
55687;BME280;41911;52.362;4.978;2023-03-18T02:35:45;100784.27;;;10.35;49.04
55687;BME280;41911;52.362;4.978;2023-03-18T02:36:20;100789.04;;;10.46;49.24
55687;BME280;41911;52.362;4.978;2023-03-18T02:36:54;100789.95;;;10.87;49.21
55687;BME280;41911;52.362;4.978;2023-03-18T02:37:26;100788.55;;;10.29;49.15
55687;BME280;41911;52.362;4.978;2023-03-18T02:37:57;100791.38;;;10.24;49.34
55687;BME280;41911;52.362;4.978;2023-03-18T02:38:41;100789.16;;;10.42;49.00
55687;BME280;41911;52.362;4.978;2023-03-18T02:39:13;100788.52;;;10.42;49.11
55687;BME280;41911;52.362;4.978;2023-03-18T02:39:44;100791.15;;;10.56;48.75
55687;BME280;41911;52.362;4.978;2023-03-18T02:40:18;100790.29;;;10.57;48.73
55687;BME280;41911;52.362;4.978;2023-03-18T02:40:50;100790.01;;;10.70;48.59
55687;BME280;41911;52.362;4.978;2023-03-18T02:41:24;100790.68;;;10.50;48.46
55687;BME280;41911;52.362;4.978;2023-03-18T02:41:56;100792.11;;;10.79;48.31
55687;BME280;41911;52.362;4.978;2023-03-18T02:42:27;100795.18;;;10.85;48.29
55687;BME280;41911;52.362;4.978;2023-03-18T02:43:17;100793.52;;;10.91;48.06
55687;BME280;41911;52.362;4.978;2023-03-18T02:43:49;100794.47;;;10.78;47.94
55687;BME280;41911;52.362;4.978;2023-03-18T02:44:22;100799.52;;;10.97;47.68
55687;BME280;41911;52.362;4.978;2023-03-18T02:44:53;100801.35;;;11.30;47.63
55687;BME280;41911;52.362;4.978;2023-03-18T02:45:34;100802.48;;;11.34;47.39
55687;BME280;41911;52.362;4.978;2023-03-18T02:46:22;100802.82;;;11.12;47.38
55687;BME280;41911;52.362;4.978;2023-03-18T02:47:00;100805.03;;;11.23;47.22
55687;BME280;41911;52.362;4.978;2023-03-18T02:47:32;100806.34;;;11.52;47.18
55687;BME280;41911;52.362;4.978;2023-03-18T02:48:04;100807.96;;;11.33;47.06
55687;BME280;41911;52.362;4.978;2023-03-18T02:48:40;100809.21;;;11.72;46.88
55687;BME280;41911;52.362;4.978;2023-03-18T02:49:12;100809.34;;;11.23;46.78
55687;BME280;41911;52.362;4.978;2023-03-18T02:49:44;100809.06;;;11.31;46.71
55687;BME280;41911;52.362;4.978;2023-03-18T02:50:15;100807.21;;;11.28;46.61
55687;BME280;41911;52.362;4.978;2023-03-18T02:50:46;100806.34;;;11.62;46.58
55687;BME280;41911;52.362;4.978;2023-03-18T02:51:17;100803.26;;;11.40;46.50
55687;BME280;41911;52.362;4.978;2023-03-18T02:51:49;100806.07;;;11.36;46.43
55687;BME280;41911;52.362;4.978;2023-03-18T02:52:20;100807.89;;;11.49;46.36
55687;BME280;41911;52.362;4.978;2023-03-18T02:52:51;100805.03;;;11.49;46.24
55687;BME280;41911;52.362;4.978;2023-03-18T02:53:22;100805.63;;;11.63;46.15